createdAt,value
2022-10-11T00:02:00.541Z,2.33
2022-10-11T00:04:28.210Z,1.52
2022-10-11T00:06:57.217Z,1.33
2022-10-11T00:09:25.013Z,1.20
2022-10-11T00:11:55.968Z,1.70
2022-10-11T00:14:23.814Z,1.00
2022-10-11T00:16:51.506Z,0.98
2022-10-11T00:19:19.452Z,2.10
2022-10-11T00:21:47.271Z,1.42
2022-10-11T00:24:16.947Z,1.40
2022-10-11T00:26:47.027Z,1.20
2022-10-11T00:29:14.919Z,1.23
2022-10-11T00:31:42.602Z,2.67
2022-10-11T00:34:12.293Z,1.05
2022-10-11T00:36:40.005Z,1.30
2022-10-11T00:39:07.766Z,1.40
2022-10-11T00:41:36.807Z,1.23
2022-10-11T00:44:17.393Z,1.60
2022-10-11T00:46:54.962Z,1.50
2022-10-11T00:49:33.029Z,1.10
2022-10-11T00:52:04.559Z,1.45
2022-10-11T00:54:35.655Z,1.30
2022-10-11T00:57:07.917Z,1.25
2022-10-11T00:59:39.526Z,1.42
2022-10-11T01:02:08.464Z,1.13
2022-10-11T01:04:36.238Z,1.33
2022-10-11T01:07:03.966Z,0.90
2022-10-11T01:09:32.294Z,1.95
2022-10-11T01:12:03.487Z,1.15
2022-10-11T01:14:53.989Z,1.33
2022-10-11T01:17:32.390Z,1.00
2022-10-11T01:20:32.570Z,0.98
2022-10-11T01:23:41.584Z,1.45
2022-10-11T01:26:35.173Z,1.08
2022-10-11T01:29:13.398Z,1.50
2022-10-11T01:31:49.614Z,0.85
2022-10-11T01:34:24.162Z,1.13
2022-10-11T01:37:04.466Z,1.15
2022-10-11T01:39:37.945Z,1.70
2022-10-11T01:42:09.856Z,1.65
2022-10-11T01:44:39.195Z,1.13
2022-10-11T01:47:08.593Z,0.80
2022-10-11T01:49:36.245Z,1.35
2022-10-11T01:52:06.846Z,1.13
2022-10-11T01:55:08.678Z,1.08
2022-10-11T01:57:48.782Z,1.13
2022-10-11T02:00:19.475Z,0.95
2022-10-11T02:03:03.446Z,1.13
2022-10-11T02:05:38.717Z,0.93
2022-10-11T02:08:16.667Z,1.85
2022-10-11T02:10:49.442Z,2.13
2022-10-11T02:13:23.781Z,1.00
2022-10-11T02:15:53.586Z,1.25
2022-10-11T02:18:26.322Z,2.42
2022-10-11T02:20:54.913Z,1.95
2022-10-11T02:23:29.149Z,1.60
2022-10-11T02:25:58.620Z,0.73
2022-10-11T02:28:30.644Z,1.10
2022-10-11T02:31:00.562Z,1.27
2022-10-11T02:33:36.831Z,1.42
2022-10-11T02:36:12.115Z,1.08
2022-10-11T02:38:44.759Z,1.42
2022-10-11T02:41:20.459Z,1.42
2022-10-11T02:43:57.313Z,0.95
2022-10-11T02:46:26.352Z,1.08
2022-10-11T02:48:55.764Z,1.30
2022-10-11T02:51:23.428Z,0.95
2022-10-11T02:53:51.176Z,1.27
2022-10-11T02:56:18.857Z,1.05
2022-10-11T02:58:46.526Z,1.40
2022-10-11T03:01:14.393Z,1.83
2022-10-11T03:03:42.374Z,1.90
2022-10-11T03:06:11.488Z,1.30
2022-10-11T03:08:39.136Z,1.88
2022-10-11T03:11:06.863Z,2.83
2022-10-11T03:13:34.552Z,1.48
2022-10-11T03:16:03.667Z,2.40
2022-10-11T03:18:31.743Z,1.48
2022-10-11T03:20:59.525Z,1.33
2022-10-11T03:23:28.551Z,1.95
2022-10-11T03:25:56.228Z,1.55
2022-10-11T03:28:23.932Z,1.27
2022-10-11T03:30:52.396Z,0.95
2022-10-11T03:33:20.623Z,1.65
2022-10-11T03:35:49.867Z,1.30
2022-10-11T03:38:20.660Z,1.77
2022-10-11T03:40:50.023Z,1.75
2022-10-11T03:43:17.831Z,1.50
2022-10-11T03:45:45.642Z,1.23
2022-10-11T03:48:13.627Z,1.80
2022-10-11T03:50:41.535Z,2.00
2022-10-11T03:53:09.698Z,1.30
2022-10-11T03:55:39.692Z,1.70
2022-10-11T03:58:09.010Z,1.80
2022-10-11T04:00:36.749Z,1.48
2022-10-11T04:03:04.652Z,1.42
2022-10-11T04:05:32.359Z,1.13
2022-10-11T04:08:00.044Z,1.00
2022-10-11T04:10:27.795Z,1.83
2022-10-11T04:12:55.422Z,0.98
2022-10-11T04:15:24.525Z,1.80
2022-10-11T04:17:52.133Z,1.27
2022-10-11T04:20:19.895Z,1.15
2022-10-11T04:22:47.556Z,1.80
2022-10-11T04:25:15.618Z,1.10
2022-10-11T04:27:43.280Z,1.20
2022-10-11T04:30:12.528Z,1.45
2022-10-11T04:32:41.530Z,1.23
2022-10-11T04:35:09.728Z,1.52
2022-10-11T04:37:37.643Z,1.70
2022-10-11T04:40:06.018Z,1.25
2022-10-11T04:42:33.826Z,1.30
2022-10-11T04:45:01.504Z,1.25
2022-10-11T04:47:29.121Z,1.70
2022-10-11T04:49:58.098Z,1.25
2022-10-11T04:52:26.205Z,1.75
2022-10-11T04:54:54.062Z,4.13
2022-10-11T04:57:21.772Z,4.43
2022-10-11T04:59:50.418Z,3.40
2022-10-11T05:02:18.574Z,2.38
2022-10-11T05:04:46.320Z,2.88
2022-10-11T05:07:15.330Z,2.30
2022-10-11T05:09:42.967Z,1.88
2022-10-11T05:12:10.915Z,2.05
2022-10-11T05:14:38.613Z,2.80
2022-10-11T05:17:06.321Z,1.52
2022-10-11T05:19:33.946Z,1.80
2022-10-11T05:22:01.628Z,1.50
2022-10-11T05:24:30.666Z,1.30
2022-10-11T05:27:02.414Z,2.75
2022-10-11T05:29:31.074Z,1.58
2022-10-11T05:31:58.766Z,1.55
2022-10-11T05:34:26.499Z,1.80
2022-10-11T05:36:54.210Z,1.27
2022-10-11T05:39:21.882Z,1.55
2022-10-11T05:41:51.731Z,1.35
2022-10-11T05:44:19.407Z,1.60
2022-10-11T05:46:47.169Z,1.38
2022-10-11T05:49:15.035Z,1.75
2022-10-11T05:51:42.721Z,2.22
2022-10-11T05:54:10.354Z,1.50
2022-10-11T05:56:38.227Z,1.63
2022-10-11T05:59:07.202Z,2.40
2022-10-11T06:01:35.008Z,3.38
2022-10-11T06:04:02.753Z,2.33
2022-10-11T06:06:30.389Z,2.60
2022-10-11T06:08:58.033Z,2.05
2022-10-11T06:11:28.168Z,1.80
2022-10-11T06:13:57.860Z,1.67
2022-10-11T06:16:28.009Z,2.90
2022-10-11T06:18:55.740Z,1.27
2022-10-11T06:21:24.185Z,2.17
2022-10-11T06:23:56.874Z,1.38
2022-10-11T06:26:27.774Z,1.23
2022-10-11T06:28:56.572Z,1.38
2022-10-11T06:31:24.499Z,1.38
2022-10-11T06:33:53.543Z,2.13
2022-10-11T06:36:21.238Z,1.63
2022-10-11T06:38:52.067Z,1.80
2022-10-11T06:41:21.674Z,1.55
2022-10-11T06:43:49.743Z,1.83
2022-10-11T06:46:18.483Z,2.33
2022-10-11T06:48:48.096Z,1.88
2022-10-11T06:51:19.125Z,1.90
2022-10-11T06:53:50.588Z,2.50
2022-10-11T06:56:19.726Z,1.50
2022-10-11T06:58:47.543Z,2.05
2022-10-11T07:01:18.956Z,1.77
2022-10-11T07:03:47.144Z,1.63
2022-10-11T07:06:18.865Z,2.22
2022-10-11T07:11:32.665Z,1.83
2022-10-11T07:14:04.182Z,1.90
2022-10-11T07:16:32.011Z,1.50
2022-10-11T07:19:01.878Z,2.17
2022-10-11T07:21:32.732Z,1.30
2022-10-11T07:24:01.040Z,2.70
2022-10-11T07:26:33.785Z,2.42
2022-10-11T07:29:04.693Z,1.35
2022-10-11T07:31:32.822Z,1.83
2022-10-11T07:34:00.717Z,1.77
2022-10-11T07:36:31.109Z,1.73
2022-10-11T07:39:00.094Z,1.65
2022-10-11T07:41:27.832Z,2.47
2022-10-11T07:43:55.540Z,1.77
2022-10-11T07:46:23.226Z,2.25
2022-10-11T07:48:50.994Z,1.92
2022-10-11T07:51:20.440Z,1.90
2022-10-11T07:53:49.890Z,1.80
2022-10-11T07:56:20.805Z,2.10
2022-10-11T07:58:52.342Z,1.80
2022-10-11T08:01:21.228Z,1.77
2022-10-11T08:03:49.725Z,1.42
2022-10-11T08:06:20.282Z,1.70
2022-10-11T08:08:48.283Z,2.33
2022-10-11T08:11:23.007Z,1.23
2022-10-11T08:13:50.927Z,2.20
2022-10-11T08:16:18.771Z,2.40
2022-10-11T08:18:46.618Z,1.75
2022-10-11T08:21:16.083Z,1.85
2022-10-11T08:23:43.915Z,1.83
2022-10-11T08:26:12.244Z,1.55
2022-10-11T08:28:41.436Z,1.40
2022-10-11T08:31:12.842Z,2.10
2022-10-11T08:33:40.530Z,1.50
2022-10-11T08:36:10.435Z,1.73
2022-10-11T08:38:39.503Z,1.83
2022-10-11T08:41:22.800Z,1.58
2022-10-11T08:43:58.710Z,0.93
2022-10-11T08:46:30.957Z,2.15
2022-10-11T08:48:59.386Z,1.00
2022-10-11T08:51:30.573Z,1.17
2022-10-11T08:54:07.417Z,1.30
2022-10-11T08:56:38.636Z,1.60
2022-10-11T08:59:21.507Z,3.10
2022-10-11T09:01:57.280Z,1.10
2022-10-11T09:04:25.107Z,1.40
2022-10-11T09:07:04.926Z,1.33
2022-10-11T09:09:55.662Z,2.65
2022-10-11T09:12:40.479Z,1.58
2022-10-11T09:15:18.762Z,1.42
2022-10-11T09:18:12.872Z,1.40
2022-10-11T09:21:09.145Z,1.83
2022-10-11T09:23:49.462Z,1.33
2022-10-11T09:26:27.783Z,1.13
2022-10-11T09:29:01.806Z,1.35
2022-10-11T09:31:31.416Z,2.03
2022-10-11T09:34:02.305Z,1.65
2022-10-11T09:36:42.325Z,1.85
2022-10-11T09:39:25.580Z,1.77
2022-10-11T09:41:59.819Z,1.30
2022-10-11T09:44:29.547Z,1.17
2022-10-11T09:46:58.654Z,1.67
2022-10-11T09:49:32.207Z,1.40
2022-10-11T09:52:03.184Z,1.33
2022-10-11T09:54:42.110Z,1.40
2022-10-11T09:57:21.058Z,1.02
2022-10-11T10:00:00.280Z,1.30
2022-10-11T10:02:30.278Z,1.65
2022-10-11T10:05:15.899Z,2.03
2022-10-11T10:08:04.286Z,0.95
2022-10-11T10:10:38.516Z,1.25
2022-10-11T10:13:18.447Z,1.40
2022-10-11T10:15:48.614Z,1.73
2022-10-11T10:18:24.725Z,1.65
2022-10-11T10:20:54.903Z,1.33
2022-10-11T10:23:25.576Z,1.40
2022-10-11T10:25:54.554Z,1.05
2022-10-11T10:28:24.697Z,1.23
2022-10-11T10:30:54.451Z,0.90
2022-10-11T10:33:25.592Z,1.20
2022-10-11T10:35:57.458Z,1.20
2022-10-11T10:38:30.006Z,1.27
2022-10-11T10:41:02.511Z,1.40
2022-10-11T10:43:34.896Z,0.90
2022-10-11T10:46:28.758Z,1.45
2022-10-11T10:52:05.847Z,1.10
2022-10-11T10:54:41.674Z,0.93
2022-10-11T10:57:18.981Z,0.93
2022-10-11T11:00:12.639Z,1.83
2022-10-11T11:02:48.712Z,0.75
2022-10-11T11:05:29.195Z,0.93
2022-10-11T11:08:05.163Z,1.05
2022-10-11T11:10:38.000Z,1.10
2022-10-11T11:13:19.820Z,2.75
2022-10-11T11:15:54.013Z,1.05
2022-10-11T11:18:29.983Z,1.33
2022-10-11T11:21:12.697Z,1.98
2022-10-11T11:23:49.851Z,0.90
2022-10-11T11:26:26.212Z,0.70
2022-10-11T11:29:07.347Z,1.15
2022-10-11T11:31:49.595Z,1.10
2022-10-11T11:34:22.922Z,1.75
2022-10-11T11:36:56.167Z,1.30
2022-10-11T11:39:26.867Z,0.70
2022-10-11T11:41:57.768Z,0.98
2022-10-11T11:44:31.282Z,1.25
2022-10-11T11:47:04.566Z,1.13
2022-10-11T11:49:37.011Z,1.00
2022-10-11T11:52:09.301Z,1.30
2022-10-11T11:54:48.246Z,1.40
2022-10-11T11:57:24.594Z,1.08
2022-10-11T11:59:59.542Z,0.70
2022-10-11T12:02:44.610Z,0.77
2022-10-11T12:05:15.759Z,1.38
2022-10-11T12:07:55.291Z,1.48
2022-10-11T12:10:31.366Z,2.15
2022-10-11T12:13:20.314Z,0.90
2022-10-11T12:16:00.950Z,0.85
2022-10-11T12:18:30.610Z,0.90
2022-10-11T12:21:07.468Z,1.70
2022-10-11T12:23:44.123Z,1.50
2022-10-11T12:26:34.085Z,2.10
2022-10-11T12:29:42.319Z,2.88
2022-10-11T12:32:49.775Z,1.40
2022-10-11T12:35:55.798Z,1.40
2022-10-11T12:38:26.045Z,1.40
2022-10-11T12:40:57.048Z,1.10
2022-10-11T12:43:31.868Z,1.30
2022-10-11T12:46:34.370Z,1.10
2022-10-11T12:49:18.860Z,0.90
2022-10-11T12:51:57.593Z,0.75
2022-10-11T12:54:53.278Z,0.70
2022-10-11T12:57:47.132Z,1.00
2022-10-11T13:00:21.651Z,1.48
2022-10-11T13:02:50.226Z,1.20
2022-10-11T13:05:24.079Z,0.60
2022-10-11T13:07:54.580Z,1.67
2022-10-11T13:10:28.711Z,1.55
2022-10-11T13:13:04.148Z,2.08
2022-10-11T13:15:32.611Z,0.90
2022-10-11T13:18:01.201Z,1.08
2022-10-11T13:20:31.417Z,1.05
2022-10-11T13:22:59.768Z,1.83
2022-10-11T13:25:29.997Z,1.42
2022-10-11T13:27:59.593Z,1.40
2022-10-11T13:30:30.562Z,1.95
2022-10-11T13:32:59.697Z,1.30
2022-10-11T13:35:31.572Z,0.93
2022-10-11T13:37:59.700Z,0.90
2022-10-11T13:40:28.438Z,1.52
2022-10-11T13:42:57.449Z,1.50
2022-10-11T13:45:30.465Z,1.98
2022-10-11T13:47:58.522Z,2.05
2022-10-11T13:50:31.812Z,0.82
2022-10-11T13:53:02.118Z,0.93
2022-10-11T13:55:33.482Z,0.90
2022-10-11T13:58:03.787Z,1.85
2022-10-11T14:00:35.993Z,1.17
2022-10-11T14:03:07.756Z,2.08
2022-10-11T14:05:38.776Z,1.40
2022-10-11T14:08:08.429Z,1.05
2022-10-11T14:10:36.499Z,1.00
2022-10-11T14:13:08.410Z,0.82
2022-10-11T14:15:38.916Z,1.30
2022-10-11T14:18:37.617Z,1.15
2022-10-11T14:21:27.339Z,1.25
2022-10-11T14:23:56.865Z,1.48
2022-10-11T14:26:26.257Z,0.90
2022-10-11T14:28:58.927Z,0.75
2022-10-11T14:31:28.750Z,1.23
2022-10-11T14:33:57.086Z,1.58
2022-10-11T14:36:26.135Z,2.03
2022-10-11T14:38:53.990Z,1.77
2022-10-11T14:41:21.745Z,1.05
2022-10-11T14:43:49.547Z,0.90
2022-10-11T14:46:23.285Z,0.60
2022-10-11T14:48:56.359Z,1.17
2022-10-11T14:51:28.523Z,1.17
2022-10-11T14:53:56.485Z,1.15
2022-10-11T14:56:24.291Z,0.93
2022-10-11T14:58:52.041Z,0.80
2022-10-11T15:01:19.831Z,0.90
2022-10-11T15:03:47.598Z,1.05
2022-10-11T15:06:20.268Z,0.70
2022-10-11T15:08:48.202Z,1.25
2022-10-11T15:11:18.368Z,1.50
2022-10-11T15:13:46.633Z,1.27
2022-10-11T15:16:16.912Z,1.65
2022-10-11T15:18:44.830Z,1.80
2022-10-11T15:21:14.695Z,0.90
2022-10-11T15:23:43.713Z,1.23
2022-10-11T15:26:14.921Z,2.35
2022-10-11T15:28:43.176Z,1.13
2022-10-11T15:31:12.287Z,1.50
2022-10-11T15:33:40.774Z,0.93
2022-10-11T15:36:13.437Z,1.20
2022-10-11T15:38:42.993Z,1.15
2022-10-11T15:41:12.874Z,1.10
2022-10-11T15:43:40.754Z,0.90
2022-10-11T15:46:09.339Z,1.10
2022-10-11T15:48:38.013Z,1.27
2022-10-11T15:51:05.789Z,1.08
2022-10-11T15:53:33.460Z,0.90
2022-10-11T15:56:05.744Z,1.10
2022-10-11T15:58:35.943Z,1.15
2022-10-11T16:01:07.926Z,1.38
2022-10-11T16:03:36.247Z,1.30
2022-10-11T16:06:05.767Z,1.40
2022-10-11T16:08:33.814Z,1.50
2022-10-11T16:11:03.532Z,1.80
2022-10-11T16:13:31.247Z,1.83
2022-10-11T16:16:01.536Z,1.73
2022-10-11T16:18:34.909Z,1.88
2022-10-11T16:21:07.517Z,2.13
2022-10-11T16:23:35.478Z,2.33
2022-10-11T16:26:07.638Z,0.93
2022-10-11T16:28:36.182Z,1.08
2022-10-11T16:31:07.518Z,1.90
2022-10-11T16:33:35.199Z,2.33
2022-10-11T16:39:05.369Z,1.50
2022-10-11T16:41:33.069Z,2.45
2022-10-11T16:44:01.258Z,1.67
2022-10-11T16:46:29.170Z,2.08
2022-10-11T16:48:56.921Z,1.75
2022-10-11T16:51:25.211Z,2.13
2022-10-11T16:53:53.358Z,1.50
2022-10-11T16:56:24.906Z,3.17
2022-10-11T16:58:54.038Z,2.03
2022-10-11T17:01:22.700Z,2.67
2022-10-11T17:03:51.033Z,2.67
2022-10-11T17:06:18.825Z,3.40
2022-10-11T17:08:46.793Z,3.03
2022-10-11T17:11:16.629Z,3.10
2022-10-11T17:13:47.039Z,3.20
2022-10-11T17:16:14.832Z,3.38
2022-10-11T17:18:42.789Z,3.80
2022-10-11T17:21:13.333Z,4.72
2022-10-11T17:23:41.624Z,4.90
2022-10-11T17:26:11.972Z,4.25
2022-10-11T17:28:40.004Z,2.85
2022-10-11T17:31:09.860Z,3.75
2022-10-11T17:33:37.887Z,3.83
2022-10-11T17:36:16.796Z,3.40
2022-10-11T17:38:44.570Z,3.45
2022-10-11T17:41:12.428Z,3.85
2022-10-11T17:43:40.258Z,4.53
2022-10-11T17:46:09.864Z,3.78
2022-10-11T17:48:39.228Z,3.22
2022-10-11T17:51:09.292Z,3.83
2022-10-11T17:53:38.052Z,4.03
2022-10-11T17:56:07.659Z,3.85
2022-10-11T17:58:35.642Z,3.90
2022-10-11T18:01:05.495Z,4.47
2022-10-11T18:03:35.350Z,5.43
2022-10-11T18:06:05.688Z,5.32
2022-10-11T18:08:39.912Z,4.95
2022-10-11T18:11:10.927Z,4.50
2022-10-11T18:13:42.029Z,5.00
2022-10-11T18:16:10.767Z,5.68
2022-10-11T18:18:42.849Z,6.70
2022-10-11T18:21:11.370Z,5.35
2022-10-11T18:23:39.553Z,5.97
2022-10-11T18:26:12.151Z,5.85
2022-10-11T18:28:40.512Z,6.65
2022-10-11T18:31:12.893Z,6.75
2022-10-11T18:33:45.438Z,5.82
2022-10-11T18:36:14.472Z,5.85
2022-10-11T18:38:46.774Z,5.32
2022-10-11T18:41:17.129Z,6.00
2022-10-11T18:43:49.387Z,6.30
2022-10-11T18:46:17.119Z,5.75
2022-10-11T18:48:48.563Z,7.07
2022-10-11T18:51:19.239Z,5.05
2022-10-11T18:53:48.135Z,6.72
2022-10-11T18:56:17.701Z,5.50
2022-10-11T18:58:45.806Z,4.93
2022-10-11T19:01:16.769Z,5.38
2022-10-11T19:03:47.268Z,5.03
2022-10-11T19:06:17.805Z,5.40
2022-10-11T19:08:45.907Z,5.38
2022-10-11T19:11:15.527Z,4.85
2022-10-11T19:13:44.240Z,5.45
2022-10-11T19:16:13.679Z,6.20
2022-10-11T19:18:44.224Z,5.18
2022-10-11T19:21:14.604Z,6.03
2022-10-11T19:23:44.123Z,6.10
2022-10-11T19:26:15.394Z,6.50
2022-10-11T19:28:44.124Z,4.95
2022-10-11T19:31:16.133Z,8.88
2022-10-11T19:33:45.125Z,14.30
2022-10-11T19:36:14.862Z,10.85
2022-10-11T19:38:45.012Z,5.35
2022-10-11T19:41:13.929Z,5.95
2022-10-11T19:43:41.846Z,6.03
2022-10-11T19:46:12.511Z,5.72
2022-10-11T19:48:42.641Z,3.83
2022-10-11T19:51:12.550Z,4.20
2022-10-11T19:53:42.268Z,3.33
2022-10-11T19:56:13.341Z,6.68
2022-10-11T19:58:41.912Z,6.35
2022-10-11T20:01:16.075Z,6.25
2022-10-11T20:03:44.635Z,6.20
2022-10-11T20:06:12.931Z,5.57
2022-10-11T20:08:42.091Z,4.95
2022-10-11T20:11:11.379Z,6.72
2022-10-11T20:13:39.922Z,4.85
2022-10-11T20:16:10.039Z,5.15
2022-10-11T20:18:38.643Z,4.45
2022-10-11T20:21:08.561Z,4.95
2022-10-11T20:23:37.060Z,4.63
2022-10-11T20:26:08.082Z,3.75
2022-10-11T20:28:37.276Z,4.35
2022-10-11T20:31:13.670Z,5.03
2022-10-11T20:33:41.827Z,4.82
2022-10-11T20:36:11.711Z,4.60
2022-10-11T20:38:41.931Z,5.00
2022-10-11T20:41:12.722Z,4.57
2022-10-11T20:43:42.723Z,4.55
2022-10-11T20:46:12.236Z,6.53
2022-10-11T20:48:42.327Z,5.00
2022-10-11T20:51:11.494Z,4.93
2022-10-11T20:53:39.632Z,4.55
2022-10-11T20:56:10.553Z,5.78
2022-10-11T20:58:40.179Z,4.80
2022-10-11T21:01:12.656Z,5.60
2022-10-11T21:03:40.443Z,9.82
2022-10-11T21:06:08.453Z,6.63
2022-10-11T21:08:37.960Z,6.47
2022-10-11T21:11:06.534Z,6.55
2022-10-11T21:13:34.734Z,5.63
2022-10-11T21:16:07.995Z,5.80
2022-10-11T21:18:35.907Z,5.43
2022-10-11T21:21:08.350Z,4.60
2022-10-11T21:23:36.338Z,5.07
2022-10-11T21:26:04.822Z,5.30
2022-10-11T21:28:33.425Z,4.93
2022-10-11T21:31:05.413Z,5.07
2022-10-11T21:33:35.487Z,4.25
2022-10-11T21:36:04.516Z,3.95
2022-10-11T21:38:32.342Z,4.47
2022-10-11T21:41:00.141Z,4.47
2022-10-11T21:43:27.811Z,4.13
2022-10-11T21:45:55.527Z,4.60
2022-10-11T21:48:23.298Z,4.30
2022-10-11T21:50:54.550Z,4.38
2022-10-11T21:53:22.392Z,5.05
2022-10-11T21:55:50.006Z,4.43
2022-10-11T21:58:17.645Z,4.32
2022-10-11T22:00:47.843Z,4.25
2022-10-11T22:03:15.503Z,4.15
2022-10-11T22:05:44.412Z,4.10
2022-10-11T22:08:14.040Z,4.45
2022-10-11T22:10:43.825Z,5.05
2022-10-11T22:13:11.626Z,4.63
2022-10-11T22:15:40.093Z,5.18
2022-10-11T22:18:07.717Z,5.15
2022-10-11T22:20:35.404Z,4.63
2022-10-11T22:23:03.391Z,5.90
2022-10-11T22:25:35.474Z,5.07
2022-10-11T22:28:03.183Z,4.28
2022-10-11T22:30:31.208Z,5.00
2022-10-11T22:32:59.018Z,4.70
2022-10-11T22:35:26.819Z,5.25
2022-10-11T22:37:54.481Z,5.63
2022-10-11T22:40:22.222Z,4.63
2022-10-11T22:42:51.166Z,4.50
2022-10-11T22:45:18.829Z,4.78
2022-10-11T22:47:46.478Z,4.07
2022-10-11T22:50:14.122Z,4.40
2022-10-11T22:52:41.813Z,5.40
2022-10-11T22:55:10.177Z,4.05
2022-10-11T22:57:38.223Z,5.22
2022-10-11T23:00:09.133Z,4.15
2022-10-11T23:02:36.829Z,4.20
2022-10-11T23:05:04.900Z,4.00
2022-10-11T23:07:32.629Z,4.07
2022-10-11T23:10:00.298Z,4.38
2022-10-11T23:12:28.069Z,3.85
2022-10-11T23:14:55.791Z,3.75
2022-10-11T23:17:24.861Z,5.05
2022-10-11T23:19:52.837Z,4.57
2022-10-11T23:22:20.558Z,4.50
2022-10-11T23:24:48.225Z,4.22
2022-10-11T23:27:16.120Z,3.85
2022-10-11T23:29:43.842Z,3.78
2022-10-11T23:32:12.168Z,3.90
2022-10-11T23:34:41.119Z,4.32
2022-10-11T23:37:08.769Z,4.13
2022-10-11T23:39:36.553Z,3.80
2022-10-11T23:42:04.314Z,3.90
2022-10-11T23:44:31.983Z,4.00
2022-10-11T23:46:59.632Z,3.80
2022-10-11T23:49:27.261Z,3.80
2022-10-11T23:51:56.205Z,5.13
2022-10-11T23:54:23.841Z,3.30
2022-10-11T23:56:51.457Z,4.13
2022-10-11T23:59:19.087Z,3.72
